Terminal Aerodrome Forecast
Issued by NWS Sioux Falls, SD

Home | Current Version | Previous Version | Text Only | Print | Product List | Glossary Off
Versions: 1 2 3 4 5 6 7 8 9 10 11 12 13 14 15

000
FTUS43 KFSD 242216 AAD
TAFSUX
TAF AMD
KSUX 242216Z 2422/2518 12008KT P6SM VCSH SCT015 BKN040
      TEMPO 2422/2424 BKN015
     FM250100 18006KT P6SM BKN060
     FM250600 24005KT P6SM SCT070
     FM250900 30008KT P6SM SCT150
     FM251400 30012KT P6SM FEW250=

USA.gov is the U.S. government's official web portal to all federal, state and local government web resources and services.